sensor_id;sensor_type;location;lat;lon;timestamp;pressure;altitude;pressure_sealevel;temperature;humidity
78309;BME280;67566;42.022;21.356;2023-09-07T00:00:29;98803.03;;;22.54;55.04
78309;BME280;67566;42.022;21.356;2023-09-07T00:02:55;98804.94;;;22.54;54.97
78309;BME280;67566;42.022;21.356;2023-09-07T00:05:20;98814.97;;;22.46;54.50
78309;BME280;67566;42.022;21.356;2023-09-07T00:07:46;98807.94;;;22.41;55.41
78309;BME280;67566;42.022;21.356;2023-09-07T00:10:12;98809.09;;;22.40;55.07
78309;BME280;67566;42.022;21.356;2023-09-07T00:12:38;98807.94;;;22.41;54.75
78309;BME280;67566;42.022;21.356;2023-09-07T00:15:05;98801.75;;;22.41;55.73
78309;BME280;67566;42.022;21.356;2023-09-07T00:17:36;98803.28;;;22.38;55.62
78309;BME280;67566;42.022;21.356;2023-09-07T00:20:02;98804.03;;;22.35;56.44
78309;BME280;67566;42.022;21.356;2023-09-07T00:22:35;98801.56;;;22.23;56.35
78309;BME280;67566;42.022;21.356;2023-09-07T00:25:01;98798.78;;;22.16;56.93
78309;BME280;67566;42.022;21.356;2023-09-07T00:27:26;98797.59;;;22.13;56.64
78309;BME280;67566;42.022;21.356;2023-09-07T00:29:52;98805.31;;;22.11;56.87
78309;BME280;67566;42.022;21.356;2023-09-07T00:32:17;98799.53;;;22.13;57.17
78309;BME280;67566;42.022;21.356;2023-09-07T00:34:43;98791.38;;;22.13;56.49
78309;BME280;67566;42.022;21.356;2023-09-07T00:37:08;98796.41;;;22.11;56.04
78309;BME280;67566;42.022;21.356;2023-09-07T00:39:34;98800.59;;;22.04;56.20
78309;BME280;67566;42.022;21.356;2023-09-07T00:41:59;98806.72;;;21.98;56.25
78309;BME280;67566;42.022;21.356;2023-09-07T00:44:24;98805.47;;;21.88;56.79
78309;BME280;67566;42.022;21.356;2023-09-07T00:46:50;98808.59;;;21.90;56.53
78309;BME280;67566;42.022;21.356;2023-09-07T00:49:15;98804.69;;;21.87;57.36
78309;BME280;67566;42.022;21.356;2023-09-07T00:51:41;98810.53;;;21.90;57.09
78309;BME280;67566;42.022;21.356;2023-09-07T00:54:06;98797.72;;;21.86;57.24
78309;BME280;67566;42.022;21.356;2023-09-07T00:56:33;98796.50;;;21.84;57.03
78309;BME280;67566;42.022;21.356;2023-09-07T00:58:58;98791.50;;;21.86;57.06
78309;BME280;67566;42.022;21.356;2023-09-07T01:01:26;98791.91;;;21.88;57.45
78309;BME280;67566;42.022;21.356;2023-09-07T01:03:51;98789.63;;;21.90;57.87
78309;BME280;67566;42.022;21.356;2023-09-07T01:06:29;98790.00;;;21.92;57.86
78309;BME280;67566;42.022;21.356;2023-09-07T01:09:03;98793.94;;;21.95;57.85
78309;BME280;67566;42.022;21.356;2023-09-07T01:11:37;98797.81;;;21.97;57.47
78309;BME280;67566;42.022;21.356;2023-09-07T01:14:02;98801.69;;;22.00;57.32
78309;BME280;67566;42.022;21.356;2023-09-07T01:16:29;98797.06;;;22.00;57.84
78309;BME280;67566;42.022;21.356;2023-09-07T01:18:56;98806.75;;;22.01;57.45
78309;BME280;67566;42.022;21.356;2023-09-07T01:21:22;98802.13;;;22.02;58.01
78309;BME280;67566;42.022;21.356;2023-09-07T01:23:48;98799.06;;;22.03;57.77
78309;BME280;67566;42.022;21.356;2023-09-07T01:26:14;98801.34;;;22.01;57.73
78309;BME280;67566;42.022;21.356;2023-09-07T01:28:39;98803.69;;;22.03;57.88
78309;BME280;67566;42.022;21.356;2023-09-07T01:31:05;98805.63;;;22.02;57.58
78309;BME280;67566;42.022;21.356;2023-09-07T01:33:31;98799.78;;;22.00;57.51
78309;BME280;67566;42.022;21.356;2023-09-07T01:35:57;98807.56;;;22.02;57.34
78309;BME280;67566;42.022;21.356;2023-09-07T01:38:22;98806.38;;;22.03;57.73
78309;BME280;67566;42.022;21.356;2023-09-07T01:40:48;98807.59;;;22.05;58.42
78309;BME280;67566;42.022;21.356;2023-09-07T01:43:13;98799.81;;;22.04;58.03
78309;BME280;67566;42.022;21.356;2023-09-07T01:45:39;98809.13;;;22.06;58.51
78309;BME280;67566;42.022;21.356;2023-09-07T01:48:14;98806.44;;;22.06;58.67
78309;BME280;67566;42.022;21.356;2023-09-07T01:50:40;98811.44;;;22.04;58.03
78309;BME280;67566;42.022;21.356;2023-09-07T01:53:06;98807.97;;;22.04;57.89
78309;BME280;67566;42.022;21.356;2023-09-07T01:55:31;98812.22;;;22.05;57.76
78309;BME280;67566;42.022;21.356;2023-09-07T01:57:57;98805.66;;;22.06;57.93
78309;BME280;67566;42.022;21.356;2023-09-07T02:00:23;98818.84;;;22.08;57.56
78309;BME280;67566;42.022;21.356;2023-09-07T02:02:48;98812.66;;;22.07;57.71
78309;BME280;67566;42.022;21.356;2023-09-07T02:05:14;98816.13;;;22.08;57.97
78309;BME280;67566;42.022;21.356;2023-09-07T02:07:39;98816.13;;;22.08;57.59
78309;BME280;67566;42.022;21.356;2023-09-07T02:10:05;98821.56;;;22.08;58.12
78309;BME280;67566;42.022;21.356;2023-09-07T02:12:31;98818.47;;;22.09;57.88
78309;BME280;67566;42.022;21.356;2023-09-07T02:15:00;98813.00;;;22.05;57.83
78309;BME280;67566;42.022;21.356;2023-09-07T02:17:26;98815.31;;;22.03;58.22
78309;BME280;67566;42.022;21.356;2023-09-07T02:19:52;98822.25;;;22.01;58.97
78309;BME280;67566;42.022;21.356;2023-09-07T02:22:17;98813.69;;;21.95;58.04
78309;BME280;67566;42.022;21.356;2023-09-07T02:24:42;98814.41;;;21.92;57.76
78309;BME280;67566;42.022;21.356;2023-09-07T02:27:08;98814.81;;;21.94;58.55
78309;BME280;67566;42.022;21.356;2023-09-07T02:29:33;98815.19;;;21.93;57.90
78309;BME280;67566;42.022;21.356;2023-09-07T02:31:59;98814.78;;;21.91;58.04
78309;BME280;67566;42.022;21.356;2023-09-07T02:34:24;98821.38;;;21.90;58.03
78309;BME280;67566;42.022;21.356;2023-09-07T02:36:50;98829.41;;;21.82;58.10
78309;BME280;67566;42.022;21.356;2023-09-07T02:39:15;98829.03;;;21.84;58.70
78309;BME280;67566;42.022;21.356;2023-09-07T02:41:41;98837.59;;;21.86;58.97
78309;BME280;67566;42.022;21.356;2023-09-07T02:44:06;98829.41;;;21.82;59.46
78309;BME280;67566;42.022;21.356;2023-09-07T02:46:32;98829.78;;;21.81;59.06
78309;BME280;67566;42.022;21.356;2023-09-07T02:48:57;98828.63;;;21.82;59.41
78309;BME280;67566;42.022;21.356;2023-09-07T02:51:24;98837.53;;;21.82;59.45
78309;BME280;67566;42.022;21.356;2023-09-07T02:53:50;98833.69;;;21.83;59.37
78309;BME280;67566;42.022;21.356;2023-09-07T02:56:15;98834.41;;;21.80;59.29
78309;BME280;67566;42.022;21.356;2023-09-07T02:58:41;98833.66;;;21.80;58.92
78309;BME280;67566;42.022;21.356;2023-09-07T03:01:07;98837.94;;;21.81;59.26
78309;BME280;67566;42.022;21.356;2023-09-07T03:03:35;98833.28;;;21.81;59.27
78309;BME280;67566;42.022;21.356;2023-09-07T03:06:11;98836.75;;;21.82;59.96
78309;BME280;67566;42.022;21.356;2023-09-07T03:08:39;98839.47;;;21.82;59.18
78309;BME280;67566;42.022;21.356;2023-09-07T03:11:05;98835.63;;;21.83;59.62
78309;BME280;67566;42.022;21.356;2023-09-07T03:13:31;98829.78;;;21.81;60.08
78309;BME280;67566;42.022;21.356;2023-09-07T03:15:56;98833.66;;;21.80;60.06
78309;BME280;67566;42.022;21.356;2023-09-07T03:18:22;98841.78;;;21.80;60.07
78309;BME280;67566;42.022;21.356;2023-09-07T03:20:49;98836.69;;;21.75;60.37
78309;BME280;67566;42.022;21.356;2023-09-07T03:23:14;98849.41;;;21.71;60.27
78309;BME280;67566;42.022;21.356;2023-09-07T03:25:40;98850.56;;;21.69;59.97
78309;BME280;67566;42.022;21.356;2023-09-07T03:28:06;98845.88;;;21.66;60.96
78309;BME280;67566;42.022;21.356;2023-09-07T03:30:32;98850.06;;;21.60;61.48
78309;BME280;67566;42.022;21.356;2023-09-07T03:32:58;98845.78;;;21.59;61.94
78309;BME280;67566;42.022;21.356;2023-09-07T03:35:23;98852.38;;;21.58;61.77
78309;BME280;67566;42.022;21.356;2023-09-07T03:37:48;98846.16;;;21.58;61.83
78309;BME280;67566;42.022;21.356;2023-09-07T03:40:14;98856.97;;;21.58;62.20
78309;BME280;67566;42.022;21.356;2023-09-07T03:42:39;98850.78;;;21.57;63.11
78309;BME280;67566;42.022;21.356;2023-09-07T03:45:05;98846.91;;;21.55;63.25
78309;BME280;67566;42.022;21.356;2023-09-07T03:47:31;98857.31;;;21.53;63.22
78309;BME280;67566;42.022;21.356;2023-09-07T03:49:57;98857.69;;;21.51;63.30
78309;BME280;67566;42.022;21.356;2023-09-07T03:52:24;98852.63;;;21.49;64.50
78309;BME280;67566;42.022;21.356;2023-09-07T03:54:53;98855.63;;;21.44;64.88
78309;BME280;67566;42.022;21.356;2023-09-07T03:57:19;98857.41;;;21.33;65.32
78309;BME280;67566;42.022;21.356;2023-09-07T03:59:45;98863.88;;;21.25;65.61
78309;BME280;67566;42.022;21.356;2023-09-07T04:02:11;98868.88;;;21.23;65.91
78309;BME280;67566;42.022;21.356;2023-09-07T04:04:38;98870.34;;;21.17;66.27
78309;BME280;67566;42.022;21.356;2023-09-07T04:07:03;98863.28;;;21.12;65.69
78309;BME280;67566;42.022;21.356;2023-09-07T04:09:29;98858.13;;;21.03;66.62
78309;BME280;67566;42.022;21.356;2023-09-07T04:11:54;98864.66;;;20.99;66.76
78309;BME280;67566;42.022;21.356;2023-09-07T04:14:20;98868.50;;;20.98;65.53
78309;BME280;67566;42.022;21.356;2023-09-07T04:16:45;98873.50;;;20.96;65.25
78309;BME280;67566;42.022;21.356;2023-09-07T04:19:11;98870.78;;;20.96;65.85
78309;BME280;67566;42.022;21.356;2023-09-07T04:21:36;98877.34;;;20.94;65.92
78309;BME280;67566;42.022;21.356;2023-09-07T04:24:02;98874.22;;;20.92;65.90
78309;BME280;67566;42.022;21.356;2023-09-07T04:26:28;98881.22;;;20.93;65.39
78309;BME280;67566;42.022;21.356;2023-09-07T04:28:54;98893.63;;;20.98;66.28
78309;BME280;67566;42.022;21.356;2023-09-07T04:31:19;98897.16;;;20.99;66.77
78309;BME280;67566;42.022;21.356;2023-09-07T04:33:46;98897.56;;;21.01;66.95
78309;BME280;67566;42.022;21.356;2023-09-07T04:36:13;98900.28;;;21.01;68.27
78309;BME280;67566;42.022;21.356;2023-09-07T04:38:40;98896.34;;;20.98;68.84
78309;BME280;67566;42.022;21.356;2023-09-07T04:41:09;98892.03;;;20.93;69.39
78309;BME280;67566;42.022;21.356;2023-09-07T04:43:36;98896.94;;;20.88;69.74
78309;BME280;67566;42.022;21.356;2023-09-07T04:46:02;98898.09;;;20.87;69.54
78309;BME280;67566;42.022;21.356;2023-09-07T04:48:28;98906.22;;;20.87;69.65
78309;BME280;67566;42.022;21.356;2023-09-07T04:51:05;98909.28;;;20.85;69.54
78309;BME280;67566;42.022;21.356;2023-09-07T04:53:32;98904.97;;;20.81;70.36
78309;BME280;67566;42.022;21.356;2023-09-07T04:56:00;98905.31;;;20.79;71.02
78309;BME280;67566;42.022;21.356;2023-09-07T04:58:26;98903.41;;;20.80;71.33
78309;BME280;67566;42.022;21.356;2023-09-07T05:00:52;98910.38;;;20.81;71.63
78309;BME280;67566;42.022;21.356;2023-09-07T05:03:18;98906.88;;;20.80;71.83
78309;BME280;67566;42.022;21.356;2023-09-07T05:05:43;98905.31;;;20.79;71.05
78309;BME280;67566;42.022;21.356;2023-09-07T05:08:09;98914.28;;;20.83;71.78
78309;BME280;67566;42.022;21.356;2023-09-07T05:10:35;98914.28;;;20.83;71.43
78309;BME280;67566;42.022;21.356;2023-09-07T05:13:01;98912.00;;;20.85;71.69
78309;BME280;67566;42.022;21.356;2023-09-07T05:15:27;98908.53;;;20.85;71.77
78309;BME280;67566;42.022;21.356;2023-09-07T05:17:53;98903.53;;;20.87;71.61
78309;BME280;67566;42.022;21.356;2023-09-07T05:20:19;98910.53;;;20.91;71.70
78309;BME280;67566;42.022;21.356;2023-09-07T05:22:44;98910.53;;;20.91;71.12
78309;BME280;67566;42.022;21.356;2023-09-07T05:25:11;98913.69;;;20.93;70.76
78309;BME280;67566;42.022;21.356;2023-09-07T05:27:38;98915.25;;;20.94;70.34
78309;BME280;67566;42.022;21.356;2023-09-07T05:30:04;98916.44;;;20.97;70.19
78309;BME280;67566;42.022;21.356;2023-09-07T05:32:30;98919.22;;;21.01;70.33
78309;BME280;67566;42.022;21.356;2023-09-07T05:34:56;98925.81;;;21.03;69.91
78309;BME280;67566;42.022;21.356;2023-09-07T05:37:21;98918.91;;;21.06;70.15
78309;BME280;67566;42.022;21.356;2023-09-07T05:39:47;98925.94;;;21.10;70.08
78309;BME280;67566;42.022;21.356;2023-09-07T05:42:14;98925.56;;;21.12;71.07
78309;BME280;67566;42.022;21.356;2023-09-07T05:44:39;98930.69;;;21.17;70.48
78309;BME280;67566;42.022;21.356;2023-09-07T05:47:08;98930.72;;;21.21;70.29
78309;BME280;67566;42.022;21.356;2023-09-07T05:49:33;98939.28;;;21.23;70.32
78309;BME280;67566;42.022;21.356;2023-09-07T05:51:59;98940.13;;;21.27;69.48
78309;BME280;67566;42.022;21.356;2023-09-07T05:54:24;98937.47;;;21.30;69.68
78309;BME280;67566;42.022;21.356;2023-09-07T05:56:57;98942.22;;;21.37;69.62
78309;BME280;67566;42.022;21.356;2023-09-07T05:59:23;98935.69;;;21.42;69.93
78309;BME280;67566;42.022;21.356;2023-09-07T06:01:48;98937.00;;;21.48;69.75
78309;BME280;67566;42.022;21.356;2023-09-07T06:04:14;98940.09;;;21.50;68.80
78309;BME280;67566;42.022;21.356;2023-09-07T06:06:39;98940.94;;;21.54;66.24
78309;BME280;67566;42.022;21.356;2023-09-07T06:09:04;98945.25;;;21.59;65.50
78309;BME280;67566;42.022;21.356;2023-09-07T06:11:30;98948.06;;;21.66;66.38
78309;BME280;67566;42.022;21.356;2023-09-07T06:13:57;98948.88;;;21.70;67.40
78309;BME280;67566;42.022;21.356;2023-09-07T06:16:23;98954.81;;;21.76;66.85
78309;BME280;67566;42.022;21.356;2023-09-07T06:18:48;98952.50;;;21.78;66.63
78309;BME280;67566;42.022;21.356;2023-09-07T06:21:17;98959.09;;;21.80;66.78
78309;BME280;67566;42.022;21.356;2023-09-07T06:23:43;98957.25;;;21.84;65.97
78309;BME280;67566;42.022;21.356;2023-09-07T06:26:08;98961.53;;;21.89;66.12
78309;BME280;67566;42.022;21.356;2023-09-07T06:28:34;98956.97;;;21.93;65.07
78309;BME280;67566;42.022;21.356;2023-09-07T06:30:59;98962.78;;;21.95;65.39
78309;BME280;67566;42.022;21.356;2023-09-07T06:33:25;98965.97;;;22.01;64.85
78309;BME280;67566;42.022;21.356;2023-09-07T06:35:50;98968.34;;;22.06;64.28
78309;BME280;67566;42.022;21.356;2023-09-07T06:38:16;98960.31;;;22.13;64.46
78309;BME280;67566;42.022;21.356;2023-09-07T06:40:47;98965.81;;;22.20;63.56
78309;BME280;67566;42.022;21.356;2023-09-07T06:43:12;98977.09;;;22.26;63.27
78309;BME280;67566;42.022;21.356;2023-09-07T06:45:38;98970.19;;;22.29;62.28
78309;BME280;67566;42.022;21.356;2023-09-07T06:48:04;98975.66;;;22.32;62.03
78309;BME280;67566;42.022;21.356;2023-09-07T06:50:29;98972.56;;;22.30;61.39
78309;BME280;67566;42.022;21.356;2023-09-07T06:52:55;98964.53;;;22.41;61.65
78309;BME280;67566;42.022;21.356;2023-09-07T06:55:20;98968.09;;;22.49;61.78
78309;BME280;67566;42.022;21.356;2023-09-07T06:57:46;98969.38;;;22.58;62.03
78309;BME280;67566;42.022;21.356;2023-09-07T07:00:14;98969.41;;;22.62;61.82
78309;BME280;67566;42.022;21.356;2023-09-07T07:02:40;98976.03;;;22.65;61.46
78309;BME280;67566;42.022;21.356;2023-09-07T07:05:06;98977.53;;;22.62;61.60
78309;BME280;67566;42.022;21.356;2023-09-07T07:07:32;98972.94;;;22.66;61.07
78309;BME280;67566;42.022;21.356;2023-09-07T07:09:58;98977.63;;;22.69;61.24
78309;BME280;67566;42.022;21.356;2023-09-07T07:12:23;98975.63;;;22.66;60.38
78309;BME280;67566;42.022;21.356;2023-09-07T07:14:49;98978.84;;;22.75;59.86
78309;BME280;67566;42.022;21.356;2023-09-07T07:17:14;98973.03;;;22.73;58.13
78309;BME280;67566;42.022;21.356;2023-09-07T07:19:40;98978.31;;;23.00;57.49
78309;BME280;67566;42.022;21.356;2023-09-07T07:22:06;98970.34;;;23.22;56.61
78309;BME280;67566;42.022;21.356;2023-09-07T07:24:32;98978.84;;;23.16;55.40
78309;BME280;67566;42.022;21.356;2023-09-07T07:26:58;98977.50;;;23.41;55.54
78309;BME280;67566;42.022;21.356;2023-09-07T07:29:23;98973.38;;;23.61;55.26
78309;BME280;67566;42.022;21.356;2023-09-07T07:31:49;98975.00;;;23.73;54.62
78309;BME280;67566;42.022;21.356;2023-09-07T07:34:15;98970.06;;;23.89;55.06
78309;BME280;67566;42.022;21.356;2023-09-07T07:36:41;98967.34;;;23.93;54.32
78309;BME280;67566;42.022;21.356;2023-09-07T07:39:06;98961.53;;;23.91;54.53
78309;BME280;67566;42.022;21.356;2023-09-07T07:41:32;98961.97;;;24.04;54.34
78309;BME280;67566;42.022;21.356;2023-09-07T07:43:58;98965.50;;;24.11;53.09
78309;BME280;67566;42.022;21.356;2023-09-07T07:46:24;98972.13;;;24.18;53.49
78309;BME280;67566;42.022;21.356;2023-09-07T07:48:49;98963.59;;;24.26;54.09
78309;BME280;67566;42.022;21.356;2023-09-07T07:51:15;98964.06;;;24.43;52.70
78309;BME280;67566;42.022;21.356;2023-09-07T07:53:41;98956.72;;;24.54;52.68
78309;BME280;67566;42.022;21.356;2023-09-07T07:56:14;98950.84;;;24.52;52.61
78309;BME280;67566;42.022;21.356;2023-09-07T07:58:40;98952.44;;;24.57;52.92
78309;BME280;67566;42.022;21.356;2023-09-07T08:01:16;98943.91;;;24.69;51.64
78309;BME280;67566;42.022;21.356;2023-09-07T08:03:41;98948.59;;;24.86;51.94
78309;BME280;67566;42.022;21.356;2023-09-07T08:06:07;98945.50;;;24.99;52.47
78309;BME280;67566;42.022;21.356;2023-09-07T08:08:32;98939.28;;;25.20;52.28
78309;BME280;67566;42.022;21.356;2023-09-07T08:10:58;98943.13;;;25.44;51.13
78309;BME280;67566;42.022;21.356;2023-09-07T08:13:25;98938.84;;;25.57;50.38
78309;BME280;67566;42.022;21.356;2023-09-07T08:15:50;98945.88;;;25.37;49.14
78309;BME280;67566;42.022;21.356;2023-09-07T08:18:19;98944.31;;;25.21;49.87
78309;BME280;67566;42.022;21.356;2023-09-07T08:20:44;98932.25;;;25.19;50.65
78309;BME280;67566;42.022;21.356;2023-09-07T08:23:13;98937.69;;;25.15;51.47
78309;BME280;67566;42.022;21.356;2023-09-07T08:25:39;98938.88;;;25.00;51.45
78309;BME280;67566;42.022;21.356;2023-09-07T08:28:10;98940.41;;;24.79;51.77
78309;BME280;67566;42.022;21.356;2023-09-07T08:30:36;98944.31;;;24.78;51.22
78309;BME280;67566;42.022;21.356;2023-09-07T08:33:02;98943.94;;;24.73;51.51
78309;BME280;67566;42.022;21.356;2023-09-07T08:35:30;98941.59;;;24.82;52.18
78309;BME280;67566;42.022;21.356;2023-09-07T08:38:03;98942.75;;;25.20;51.68
78309;BME280;67566;42.022;21.356;2023-09-07T08:40:33;98929.91;;;25.35;49.99
78309;BME280;67566;42.022;21.356;2023-09-07T08:43:03;98929.16;;;25.31;49.73
78309;BME280;67566;42.022;21.356;2023-09-07T08:45:30;98934.97;;;25.51;50.49
78309;BME280;67566;42.022;21.356;2023-09-07T08:47:57;98927.88;;;25.75;50.17
78309;BME280;67566;42.022;21.356;2023-09-07T08:50:24;98929.00;;;25.89;49.52
78309;BME280;67566;42.022;21.356;2023-09-07T08:52:51;98923.16;;;25.97;48.85
78309;BME280;67566;42.022;21.356;2023-09-07T08:55:17;98923.09;;;26.12;48.35
78309;BME280;67566;42.022;21.356;2023-09-07T08:57:43;98926.53;;;26.27;48.97
78309;BME280;67566;42.022;21.356;2023-09-07T09:00:09;98917.88;;;26.39;48.08
78309;BME280;67566;42.022;21.356;2023-09-07T09:02:41;98920.22;;;26.41;47.80
78309;BME280;67566;42.022;21.356;2023-09-07T09:05:09;98920.16;;;26.51;46.93
78309;BME280;67566;42.022;21.356;2023-09-07T09:07:35;98916.59;;;26.62;46.45
78309;BME280;67566;42.022;21.356;2023-09-07T09:10:05;98921.59;;;26.70;47.29
78309;BME280;67566;42.022;21.356;2023-09-07T09:12:31;98917.59;;;26.82;46.54
78309;BME280;67566;42.022;21.356;2023-09-07T09:14:56;98916.06;;;26.81;45.81
78309;BME280;67566;42.022;21.356;2023-09-07T09:17:24;98917.16;;;26.87;46.08
78309;BME280;67566;42.022;21.356;2023-09-07T09:19:50;98915.56;;;26.93;46.57
78309;BME280;67566;42.022;21.356;2023-09-07T09:22:15;98920.16;;;27.07;46.30
78309;BME280;67566;42.022;21.356;2023-09-07T09:24:41;98915.34;;;27.19;46.28
78309;BME280;67566;42.022;21.356;2023-09-07T09:27:06;98905.91;;;27.27;45.58
78309;BME280;67566;42.022;21.356;2023-09-07T09:29:33;98908.66;;;27.23;45.01
78309;BME280;67566;42.022;21.356;2023-09-07T09:32:09;98913.78;;;27.21;43.68
78309;BME280;67566;42.022;21.356;2023-09-07T09:34:36;98902.53;;;27.12;43.80
78309;BME280;67566;42.022;21.356;2023-09-07T09:37:02;98897.00;;;27.19;44.77
78309;BME280;67566;42.022;21.356;2023-09-07T09:39:31;98906.69;;;27.24;44.14
78309;BME280;67566;42.022;21.356;2023-09-07T09:41:57;98901.88;;;27.42;45.24
78309;BME280;67566;42.022;21.356;2023-09-07T09:44:23;98892.75;;;27.56;44.52
78309;BME280;67566;42.022;21.356;2023-09-07T09:46:52;98896.53;;;27.66;44.58
78309;BME280;67566;42.022;21.356;2023-09-07T09:49:22;98893.59;;;27.84;44.78
78309;BME280;67566;42.022;21.356;2023-09-07T09:51:49;98891.81;;;28.01;44.14
78309;BME280;67566;42.022;21.356;2023-09-07T09:54:18;98894.78;;;28.14;43.54
78309;BME280;67566;42.022;21.356;2023-09-07T09:56:44;98891.13;;;28.24;43.22
78309;BME280;67566;42.022;21.356;2023-09-07T09:59:10;98885.19;;;28.29;42.92
78309;BME280;67566;42.022;21.356;2023-09-07T10:01:39;98887.41;;;28.38;43.08
78309;BME280;67566;42.022;21.356;2023-09-07T10:04:08;98881.84;;;28.45;43.03
78309;BME280;67566;42.022;21.356;2023-09-07T10:06:34;98883.72;;;28.48;42.85
78309;BME280;67566;42.022;21.356;2023-09-07T10:09:04;98882.09;;;28.54;42.13
78309;BME280;67566;42.022;21.356;2023-09-07T10:11:38;98874.66;;;28.55;41.85
78309;BME280;67566;42.022;21.356;2023-09-07T10:14:05;98879.31;;;28.58;41.26
78309;BME280;67566;42.022;21.356;2023-09-07T10:16:45;98878.53;;;28.57;41.16
78309;BME280;67566;42.022;21.356;2023-09-07T10:19:15;98872.06;;;28.71;41.11
78309;BME280;67566;42.022;21.356;2023-09-07T10:21:41;98872.28;;;28.80;40.85
78309;BME280;67566;42.022;21.356;2023-09-07T10:24:07;98865.31;;;28.76;40.51
78309;BME280;67566;42.022;21.356;2023-09-07T10:26:33;98867.34;;;28.72;41.17
78309;BME280;67566;42.022;21.356;2023-09-07T10:29:00;98872.19;;;28.64;40.69
78309;BME280;67566;42.022;21.356;2023-09-07T10:31:26;98865.75;;;28.47;41.44
78309;BME280;67566;42.022;21.356;2023-09-07T10:33:52;98859.19;;;28.41;41.20
78309;BME280;67566;42.022;21.356;2023-09-07T10:36:24;98863.13;;;28.40;42.24
78309;BME280;67566;42.022;21.356;2023-09-07T10:38:51;98868.03;;;28.52;41.53
78309;BME280;67566;42.022;21.356;2023-09-07T10:41:18;98856.72;;;28.50;40.82
78309;BME280;67566;42.022;21.356;2023-09-07T10:43:48;98850.78;;;28.79;40.27
78309;BME280;67566;42.022;21.356;2023-09-07T10:46:14;98856.69;;;28.77;40.13
78309;BME280;67566;42.022;21.356;2023-09-07T10:48:40;98850.13;;;28.71;39.93
78309;BME280;67566;42.022;21.356;2023-09-07T10:51:06;98849.75;;;28.69;40.26
78309;BME280;67566;42.022;21.356;2023-09-07T10:53:32;98847.34;;;28.75;39.83
78309;BME280;67566;42.022;21.356;2023-09-07T10:56:02;98856.81;;;28.70;39.65
78309;BME280;67566;42.022;21.356;2023-09-07T10:58:30;98851.94;;;28.81;39.25
78309;BME280;67566;42.022;21.356;2023-09-07T11:00:56;98850.38;;;28.80;39.14
78309;BME280;67566;42.022;21.356;2023-09-07T11:03:24;98849.75;;;28.93;40.20
78309;BME280;67566;42.022;21.356;2023-09-07T11:05:57;98850.88;;;29.19;39.62
78309;BME280;67566;42.022;21.356;2023-09-07T11:08:24;98853.78;;;29.32;38.67
78309;BME280;67566;42.022;21.356;2023-09-07T11:10:50;98841.75;;;29.46;38.71
78309;BME280;67566;42.022;21.356;2023-09-07T11:13:17;98842.09;;;29.48;38.95
78309;BME280;67566;42.022;21.356;2023-09-07T11:15:43;98844.84;;;29.48;38.25
78309;BME280;67566;42.022;21.356;2023-09-07T11:18:09;98836.25;;;29.46;39.16
78309;BME280;67566;42.022;21.356;2023-09-07T11:20:35;98836.13;;;29.09;39.31
78309;BME280;67566;42.022;21.356;2023-09-07T11:23:02;98842.34;;;29.13;39.12
78309;BME280;67566;42.022;21.356;2023-09-07T11:25:34;98838.59;;;29.04;39.03
78309;BME280;67566;42.022;21.356;2023-09-07T11:27:59;98841.06;;;28.74;39.60
78309;BME280;67566;42.022;21.356;2023-09-07T11:30:24;98827.13;;;28.89;39.99
78309;BME280;67566;42.022;21.356;2023-09-07T11:32:50;98825.66;;;29.04;39.68
78309;BME280;67566;42.022;21.356;2023-09-07T11:35:15;98827.84;;;29.16;39.22
78309;BME280;67566;42.022;21.356;2023-09-07T11:37:41;98829.72;;;29.19;39.14
78309;BME280;67566;42.022;21.356;2023-09-07T11:40:08;98823.81;;;29.21;39.21
78309;BME280;67566;42.022;21.356;2023-09-07T11:42:38;98826.13;;;29.23;39.05
78309;BME280;67566;42.022;21.356;2023-09-07T11:45:06;98830.56;;;29.16;38.50
78309;BME280;67566;42.022;21.356;2023-09-07T11:47:32;98825.84;;;29.17;39.46
78309;BME280;67566;42.022;21.356;2023-09-07T11:49:57;98818.53;;;29.30;39.60
78309;BME280;67566;42.022;21.356;2023-09-07T11:52:23;98819.41;;;29.27;39.00
78309;BME280;67566;42.022;21.356;2023-09-07T11:54:48;98816.38;;;29.42;39.11
78309;BME280;67566;42.022;21.356;2023-09-07T11:57:14;98811.22;;;29.44;38.85
78309;BME280;67566;42.022;21.356;2023-09-07T11:59:41;98806.00;;;29.49;38.67
78309;BME280;67566;42.022;21.356;2023-09-07T12:02:06;98812.78;;;29.25;38.37
78309;BME280;67566;42.022;21.356;2023-09-07T12:04:32;98808.72;;;29.09;38.41
78309;BME280;67566;42.022;21.356;2023-09-07T12:06:58;98808.38;;;29.07;38.85
78309;BME280;67566;42.022;21.356;2023-09-07T12:09:24;98805.63;;;29.31;39.96
78309;BME280;67566;42.022;21.356;2023-09-07T12:11:49;98803.19;;;29.53;39.43
78309;BME280;67566;42.022;21.356;2023-09-07T12:14:15;98797.50;;;29.64;38.79
78309;BME280;67566;42.022;21.356;2023-09-07T12:16:40;98797.50;;;29.64;38.74
78309;BME280;67566;42.022;21.356;2023-09-07T12:19:06;98795.94;;;29.63;38.33
78309;BME280;67566;42.022;21.356;2023-09-07T12:21:31;98799.00;;;29.48;39.11
78309;BME280;67566;42.022;21.356;2023-09-07T12:23:57;98793.09;;;29.30;38.31
78309;BME280;67566;42.022;21.356;2023-09-07T12:26:22;98796.50;;;28.94;38.39
78309;BME280;67566;42.022;21.356;2023-09-07T12:28:48;98790.91;;;28.77;38.62
78309;BME280;67566;42.022;21.356;2023-09-07T12:31:13;98791.78;;;28.94;38.77
78309;BME280;67566;42.022;21.356;2023-09-07T12:33:40;98790.66;;;29.12;39.29
78309;BME280;67566;42.022;21.356;2023-09-07T12:36:05;98791.41;;;29.16;38.24
78309;BME280;67566;42.022;21.356;2023-09-07T12:38:34;98783.56;;;29.14;39.07
78309;BME280;67566;42.022;21.356;2023-09-07T12:41:00;98793.31;;;28.95;38.04
78309;BME280;67566;42.022;21.356;2023-09-07T12:43:25;98773.72;;;28.97;38.75
78309;BME280;67566;42.022;21.356;2023-09-07T12:45:51;98785.06;;;28.99;38.77